Time;durP1;ratioP1;P1;durP2;ratioP2;P2;SDS_P1;SDS_P2;PMS_P1;PMS_P2;Temp;Humidity;BMP_temperature;BMP_pressure;BME280_temperature;BME280_humidity;BME280_pressure;Samples;Min_cycle;Max_cycle;Signal;HPM_P1;HPM_P2
2023/04/04 00:01:24;;;;;;;7.97;7.53;;;6.90;13.70;;;;;;5038951;28;20533;-60
2023/04/04 00:03:50;;;;;;;8.00;7.50;;;7.00;13.80;;;;;;5035278;28;20420;-59
2023/04/04 00:06:19;;;;;;;7.70;7.40;;;7.00;13.80;;;;;;5036520;28;21073;-58
2023/04/04 00:08:46;;;;;;;7.43;7.10;;;7.10;12.80;;;;;;5020750;28;20453;-60
2023/04/04 00:11:12;;;;;;;7.50;7.10;;;7.20;12.90;;;;;;5035580;28;20442;-58
2023/04/04 00:13:38;;;;;;;7.77;7.20;;;7.20;12.50;;;;;;5036536;28;20487;-59
2023/04/04 00:16:04;;;;;;;8.03;7.47;;;7.30;12.40;;;;;;5036155;28;20506;-59
2023/04/04 00:18:31;;;;;;;7.63;7.23;;;7.30;12.30;;;;;;5035587;28;20416;-60
2023/04/04 00:20:57;;;;;;;7.63;7.30;;;7.30;12.30;;;;;;5034997;28;20429;-60
2023/04/04 00:23:22;;;;;;;6.90;6.60;;;7.40;12.40;;;;;;5035219;28;20415;-60
2023/04/04 00:25:50;;;;;;;7.37;7.07;;;7.40;12.30;;;;;;5036257;28;20184;-59
2023/04/04 00:28:16;;;;;;;7.43;7.03;;;7.40;12.60;;;;;;5034889;28;20185;-60
2023/04/04 00:30:42;;;;;;;7.73;7.23;;;7.40;12.60;;;;;;5035592;28;20910;-60
2023/04/04 00:33:07;;;;;;;7.53;7.23;;;7.50;12.40;;;;;;5034324;28;20522;-59
2023/04/04 00:35:33;;;;;;;7.47;7.07;;;7.40;12.40;;;;;;5019277;28;20200;-60
2023/04/04 00:37:59;;;;;;;7.40;7.10;;;7.40;12.40;;;;;;5035017;28;20287;-60
2023/04/04 00:40:25;;;;;;;7.63;7.33;;;7.40;12.80;;;;;;5034297;28;20694;-60
2023/04/04 00:42:52;;;;;;;8.17;7.77;;;7.30;12.50;;;;;;5035959;28;20407;-60
2023/04/04 00:45:17;;;;;;;8.10;7.70;;;7.30;12.50;;;;;;5035729;28;20482;-59
2023/04/04 00:47:44;;;;;;;7.90;7.60;;;7.30;12.30;;;;;;5035913;28;20489;-60
2023/04/04 00:50:10;;;;;;;8.43;8.03;;;7.30;12.30;;;;;;5035247;28;20237;-59
2023/04/04 00:52:36;;;;;;;8.33;7.93;;;7.30;12.30;;;;;;5033360;28;20419;-60
2023/04/04 00:55:03;;;;;;;7.30;7.00;;;7.30;12.20;;;;;;5001778;28;20188;-60
2023/04/04 00:57:31;;;;;;;8.00;7.60;;;7.30;12.10;;;;;;5034869;28;20465;-60
2023/04/04 00:59:58;;;;;;;8.67;7.83;;;7.30;12.20;;;;;;5033345;28;20412;-58
2023/04/04 01:02:25;;;;;;;7.90;7.50;;;7.30;12.20;;;;;;5034072;28;20422;-59
2023/04/04 01:04:51;;;;;;;7.90;7.60;;;7.30;12.30;;;;;;5034143;28;20432;-60
2023/04/04 01:07:18;;;;;;;8.53;8.23;;;7.20;12.50;;;;;;5035157;28;20441;-59
2023/04/04 01:09:43;;;;;;;7.83;7.40;;;7.20;12.40;;;;;;5034419;28;20652;-60
2023/04/04 01:12:10;;;;;;;8.57;8.07;;;7.20;12.40;;;;;;5034460;28;20512;-60
2023/04/04 01:14:35;;;;;;;7.67;7.33;;;7.10;12.50;;;;;;5032894;28;20173;-60
2023/04/04 01:17:02;;;;;;;7.40;7.10;;;7.00;12.70;;;;;;5034001;28;20467;-59
2023/04/04 01:19:52;;;;;;;7.80;7.40;;;7.10;12.70;;;;;;5034225;28;20554;-60
2023/04/04 01:22:18;;;;;;;8.60;8.20;;;7.10;12.60;;;;;;5033689;28;20773;-59
2023/04/04 01:24:45;;;;;;;7.93;7.60;;;7.10;12.80;;;;;;5033172;28;20929;-58
2023/04/04 01:27:12;;;;;;;8.33;7.93;;;7.00;12.60;;;;;;5034936;28;20517;-60
2023/04/04 01:29:37;;;;;;;7.73;7.43;;;6.90;12.90;;;;;;5039140;28;20415;-59
2023/04/04 01:32:11;;;;;;;7.63;7.33;;;6.90;13.00;;;;;;5036971;28;20434;-60
2023/04/04 01:34:49;;;;;;;8.10;7.70;;;6.90;13.00;;;;;;5036406;28;20180;-60
2023/04/04 01:38:06;;;;;;;7.77;7.37;;;6.90;12.60;;;;;;5036502;28;20833;-60
2023/04/04 01:40:34;;;;;;;7.70;7.30;;;6.90;12.70;;;;;;4987583;28;20662;-60
2023/04/04 01:43:00;;;;;;;7.70;7.40;;;7.00;12.80;;;;;;5036561;28;20419;-60
2023/04/04 01:45:27;;;;;;;8.00;7.70;;;7.00;12.90;;;;;;5038038;28;20423;-59
2023/04/04 01:47:52;;;;;;;8.67;8.10;;;7.00;12.60;;;;;;5037447;28;20435;-60
2023/04/04 01:50:18;;;;;;;7.93;7.53;;;7.00;12.70;;;;;;5036530;28;20453;-60
2023/04/04 01:52:44;;;;;;;8.43;7.93;;;7.00;12.70;;;;;;5035457;28;20184;-60
2023/04/04 01:55:09;;;;;;;8.40;8.00;;;7.00;12.60;;;;;;5037605;28;20231;-60
2023/04/04 01:57:35;;;;;;;8.37;7.97;;;7.00;13.00;;;;;;5036878;28;20172;-60
2023/04/04 02:00:00;;;;;;;8.30;7.90;;;6.70;13.60;;;;;;5037547;28;20173;-60
2023/04/04 02:02:26;;;;;;;8.47;8.00;;;6.60;13.10;;;;;;5036397;28;20183;-61
2023/04/04 02:04:52;;;;;;;7.70;7.40;;;6.60;13.00;;;;;;5035798;28;20183;-60
2023/04/04 02:07:18;;;;;;;9.00;8.50;;;6.70;13.20;;;;;;5037158;28;20715;-60
2023/04/04 02:09:44;;;;;;;8.63;8.03;;;6.70;13.20;;;;;;5037187;28;20408;-59
2023/04/04 02:12:09;;;;;;;8.67;8.27;;;6.70;13.60;;;;;;5033988;28;20176;-60
2023/04/04 02:14:35;;;;;;;7.50;7.20;;;6.70;13.60;;;;;;5033737;28;20172;-59
2023/04/04 02:17:00;;;;;;;8.50;8.10;;;6.70;13.60;;;;;;5036641;28;20214;-59
2023/04/04 02:19:26;;;;;;;8.00;7.60;;;6.70;13.40;;;;;;5037121;28;20175;-60
2023/04/04 02:21:52;;;;;;;8.27;7.97;;;6.80;13.10;;;;;;5036830;28;20979;-60
2023/04/04 02:24:17;;;;;;;7.60;7.20;;;6.80;12.80;;;;;;5037694;28;20187;-60
2023/04/04 02:26:43;;;;;;;7.93;7.53;;;6.80;13.00;;;;;;5037824;28;20629;-60
2023/04/04 02:29:08;;;;;;;8.20;7.90;;;6.80;12.80;;;;;;5037463;28;20212;-59
2023/04/04 02:31:34;;;;;;;8.30;7.80;;;6.70;13.20;;;;;;5035256;28;20192;-59
2023/04/04 02:34:00;;;;;;;8.43;8.03;;;6.70;13.00;;;;;;5034651;28;20184;-59
2023/04/04 02:36:26;;;;;;;8.00;7.60;;;6.70;13.10;;;;;;5035832;28;20204;-60
2023/04/04 02:38:52;;;;;;;7.97;7.57;;;6.70;13.60;;;;;;5037957;28;20181;-60
2023/04/04 02:41:17;;;;;;;7.57;7.10;;;6.60;13.50;;;;;;5018353;28;20937;-60
2023/04/04 02:43:43;;;;;;;7.60;7.20;;;6.60;13.50;;;;;;5019338;28;20255;-60
2023/04/04 02:46:08;;;;;;;8.20;7.80;;;6.60;13.50;;;;;;5018693;28;20192;-60
2023/04/04 02:48:35;;;;;;;7.80;7.40;;;6.70;13.60;;;;;;5015848;28;20203;-60
2023/04/04 02:51:00;;;;;;;8.07;7.67;;;6.70;13.60;;;;;;4999814;28;20180;-60
2023/04/04 02:53:27;;;;;;;9.00;8.40;;;6.70;13.60;;;;;;5019739;28;20425;-60
2023/04/04 02:55:52;;;;;;;8.97;8.23;;;6.70;13.60;;;;;;5019260;28;20192;-60
2023/04/04 02:58:18;;;;;;;8.57;8.20;;;6.70;13.60;;;;;;5016298;28;20780;-60
2023/04/04 03:00:46;;;;;;;8.10;7.70;;;6.70;13.60;;;;;;5018237;28;20521;-60
2023/04/04 03:03:11;;;;;;;8.87;8.47;;;6.70;13.60;;;;;;5019473;28;20275;-60
2023/04/04 03:05:37;;;;;;;8.67;8.27;;;6.70;13.60;;;;;;5019681;28;20506;-60
2023/04/04 03:08:03;;;;;;;8.20;7.80;;;6.70;13.60;;;;;;5018101;28;20184;-50
2023/04/04 03:10:29;;;;;;;8.77;8.40;;;6.70;13.60;;;;;;5019820;28;20564;-46
2023/04/04 03:12:55;;;;;;;8.87;8.47;;;6.60;13.50;;;;;;5019835;28;20420;-51
2023/04/04 03:15:21;;;;;;;8.80;8.30;;;6.60;13.50;;;;;;5019309;28;20204;-45
2023/04/04 03:17:47;;;;;;;8.70;8.30;;;6.50;13.40;;;;;;5019507;28;20515;-49
2023/04/04 03:20:16;;;;;;;8.50;8.20;;;6.50;14.00;;;;;;5019061;28;20276;-46
2023/04/04 03:22:42;;;;;;;8.00;7.60;;;6.40;13.40;;;;;;5020098;28;20507;-46
2023/04/04 03:25:08;;;;;;;8.67;8.17;;;6.50;13.40;;;;;;5018809;28;20442;-47
2023/04/04 03:27:34;;;;;;;8.40;7.90;;;6.50;13.40;;;;;;5020075;28;20188;-47
2023/04/04 03:30:00;;;;;;;8.73;8.23;;;6.30;13.40;;;;;;5018119;28;20926;-50
2023/04/04 03:32:26;;;;;;;8.50;8.20;;;6.30;14.20;;;;;;5018430;28;20643;-47
2023/04/04 03:34:52;;;;;;;9.43;8.90;;;6.30;13.90;;;;;;5008361;28;20575;-45
2023/04/04 03:37:18;;;;;;;8.87;8.47;;;6.50;13.80;;;;;;5033677;28;20419;-50
2023/04/04 03:39:44;;;;;;;8.20;7.80;;;6.60;13.50;;;;;;5035352;28;20629;-48
2023/04/04 03:42:09;;;;;;;8.50;8.10;;;6.70;13.60;;;;;;5035047;28;20415;-50
2023/04/04 03:44:38;;;;;;;8.03;7.73;;;6.90;13.70;;;;;;5034838;28;20797;-49
2023/04/04 03:47:04;;;;;;;8.67;8.17;;;6.90;13.40;;;;;;5036770;28;20801;-46
2023/04/04 03:49:31;;;;;;;7.50;7.20;;;6.90;13.30;;;;;;5022566;28;20490;-49
2023/04/04 03:51:57;;;;;;;8.10;7.70;;;6.90;13.30;;;;;;5035854;28;20643;-46
2023/04/04 03:54:22;;;;;;;8.87;8.37;;;6.90;13.50;;;;;;5036250;28;20565;-48
2023/04/04 03:56:48;;;;;;;9.13;8.73;;;7.00;13.30;;;;;;5038480;28;20311;-47
2023/04/04 03:59:14;;;;;;;8.27;7.80;;;7.00;13.20;;;;;;5036995;28;20181;-47
2023/04/04 04:01:40;;;;;;;8.43;7.83;;;7.00;13.10;;;;;;5038776;28;20633;-50
2023/04/04 04:04:05;;;;;;;8.33;7.80;;;7.10;12.70;;;;;;5038457;28;20185;-60
2023/04/04 04:06:31;;;;;;;8.60;8.20;;;7.10;12.80;;;;;;5037437;28;20180;-60
2023/04/04 04:08:57;;;;;;;8.47;8.03;;;7.00;12.90;;;;;;5038490;28;20271;-59
2023/04/04 04:11:24;;;;;;;8.47;8.07;;;7.00;13.00;;;;;;5014584;28;20196;-60
2023/04/04 04:13:49;;;;;;;8.33;7.80;;;6.90;13.20;;;;;;5020915;28;20184;-59
2023/04/04 04:16:15;;;;;;;9.67;9.10;;;6.80;13.10;;;;;;5024682;28;20467;-60
2023/04/04 04:18:40;;;;;;;9.20;8.70;;;6.70;13.60;;;;;;5025882;28;20191;-60
2023/04/04 04:21:06;;;;;;;8.87;8.47;;;6.60;13.50;;;;;;5024382;28;20173;-60
2023/04/04 04:23:32;;;;;;;9.10;8.60;;;6.60;13.50;;;;;;5016478;28;20622;-60
2023/04/04 04:25:57;;;;;;;8.47;7.97;;;6.60;13.50;;;;;;5006575;28;20181;-59
2023/04/04 04:28:23;;;;;;;8.20;7.80;;;6.60;13.50;;;;;;5005766;28;20192;-52
2023/04/04 04:30:50;;;;;;;8.23;7.73;;;6.60;13.50;;;;;;5026903;28;20659;-49
2023/04/04 04:33:16;;;;;;;8.00;7.40;;;6.60;13.30;;;;;;5027054;28;20985;-59
2023/04/04 04:35:41;;;;;;;8.93;8.43;;;6.60;13.50;;;;;;5027208;28;20458;-59
2023/04/04 04:38:07;;;;;;;8.57;8.07;;;6.40;13.90;;;;;;5029561;28;20430;-60
2023/04/04 04:40:33;;;;;;;8.87;8.37;;;6.40;13.40;;;;;;5026485;28;20280;-59
2023/04/04 04:42:59;;;;;;;8.90;8.47;;;6.40;13.40;;;;;;5027685;28;20184;-59
2023/04/04 04:45:25;;;;;;;9.60;8.90;;;6.40;13.40;;;;;;5029837;28;20427;-60
2023/04/04 04:47:51;;;;;;;9.40;8.97;;;6.50;13.40;;;;;;5013079;28;20228;-60
2023/04/04 04:50:17;;;;;;;8.90;8.40;;;6.50;13.10;;;;;;5023639;28;20766;-59
2023/04/04 04:52:43;;;;;;;7.37;7.07;;;6.60;13.30;;;;;;5024645;28;20474;-59
2023/04/04 04:55:10;;;;;;;8.50;8.00;;;6.60;13.50;;;;;;5026473;28;20194;-60
2023/04/04 04:57:39;;;;;;;8.60;8.20;;;6.60;13.50;;;;;;5026043;28;20819;-60
2023/04/04 05:00:05;;;;;;;7.70;7.33;;;6.60;13.90;;;;;;5029633;28;20519;-59
2023/04/04 05:02:31;;;;;;;7.70;7.30;;;6.50;13.40;;;;;;5027539;28;20415;-59
2023/04/04 05:04:59;;;;;;;9.07;8.67;;;6.40;13.40;;;;;;5011388;28;20732;-59
2023/04/04 05:07:25;;;;;;;7.80;7.40;;;6.50;13.40;;;;;;5027253;28;20176;-59
2023/04/04 05:09:51;;;;;;;8.83;8.43;;;6.50;13.40;;;;;;5029035;28;20765;-59
2023/04/04 05:12:17;;;;;;;8.90;8.40;;;6.50;13.40;;;;;;5027191;28;20180;-59
2023/04/04 05:14:43;;;;;;;9.20;8.60;;;6.30;13.30;;;;;;5028044;28;20424;-59
2023/04/04 05:17:09;;;;;;;8.20;7.60;;;6.30;13.50;;;;;;5028745;28;20470;-60
2023/04/04 05:19:35;;;;;;;9.80;9.13;;;6.30;13.30;;;;;;5029285;28;20565;-59
2023/04/04 05:22:00;;;;;;;8.93;8.43;;;6.30;13.30;;;;;;5027495;28;20188;-59
2023/04/04 05:24:26;;;;;;;9.27;8.77;;;6.40;13.40;;;;;;5030996;28;20264;-60
2023/04/04 05:26:52;;;;;;;9.27;8.77;;;6.40;13.40;;;;;;5030069;28;20227;-51
2023/04/04 05:29:17;;;;;;;8.80;8.40;;;6.40;13.40;;;;;;5030729;28;20189;-51
2023/04/04 05:31:43;;;;;;;8.63;8.23;;;6.40;12.90;;;;;;5029087;28;20316;-52
2023/04/04 05:34:08;;;;;;;9.17;8.70;;;6.40;13.00;;;;;;5030362;28;20194;-52
2023/04/04 05:36:35;;;;;;;8.90;8.40;;;6.40;13.00;;;;;;5029529;28;20649;-55
2023/04/04 05:39:03;;;;;;;8.57;8.03;;;6.40;12.80;;;;;;5029641;28;20177;-49
2023/04/04 05:41:29;;;;;;;9.57;9.07;;;6.40;12.50;;;;;;5008728;28;20470;-46
2023/04/04 05:43:55;;;;;;;9.10;8.50;;;6.30;12.60;;;;;;5009859;28;20412;-49
2023/04/04 05:46:20;;;;;;;9.00;8.40;;;6.30;12.90;;;;;;5018357;28;20451;-51
2023/04/04 05:48:46;;;;;;;8.80;8.40;;;6.30;13.00;;;;;;5016634;28;20228;-47
2023/04/04 05:51:12;;;;;;;8.63;8.23;;;6.30;12.80;;;;;;5040664;28;20184;-46
2023/04/04 05:53:37;;;;;;;9.03;8.50;;;6.20;12.80;;;;;;5022364;28;20188;-47
2023/04/04 05:56:03;;;;;;;8.73;8.10;;;6.20;12.70;;;;;;5025938;28;20304;-46
2023/04/04 05:58:29;;;;;;;9.10;8.60;;;6.20;12.70;;;;;;5008948;28;20181;-46
2023/04/04 06:00:54;;;;;;;9.43;8.73;;;6.20;12.50;;;;;;5025236;28;20615;-45
2023/04/04 06:03:20;;;;;;;9.13;8.63;;;6.20;12.70;;;;;;5029391;28;20501;-46
2023/04/04 06:05:51;;;;;;;10.10;9.23;;;6.20;12.90;;;;;;5028796;28;20212;-46
2023/04/04 06:08:16;;;;;;;8.60;8.30;;;6.20;13.20;;;;;;5026918;28;20176;-49
2023/04/04 06:10:42;;;;;;;8.90;8.43;;;6.20;12.80;;;;;;5045893;28;20424;-50
2023/04/04 06:13:08;;;;;;;9.10;8.50;;;6.20;13.30;;;;;;5044524;28;20548;-46
2023/04/04 06:15:33;;;;;;;10.20;9.50;;;6.10;13.00;;;;;;5049923;28;20295;-51
2023/04/04 06:17:59;;;;;;;9.70;9.20;;;6.10;12.80;;;;;;5049475;28;20184;-47
2023/04/04 06:20:25;;;;;;;10.10;9.60;;;6.00;12.90;;;;;;5031451;28;20200;-52
2023/04/04 06:22:50;;;;;;;11.00;10.50;;;5.90;13.10;;;;;;5049220;28;20259;-45
2023/04/04 06:25:16;;;;;;;9.53;8.93;;;6.00;13.10;;;;;;5015609;28;20191;-45
2023/04/04 06:27:42;;;;;;;9.80;9.23;;;6.00;13.10;;;;;;5049658;28;20177;-47
2023/04/04 06:30:09;;;;;;;8.73;8.30;;;6.10;12.90;;;;;;5050444;28;20415;-48
2023/04/04 06:32:34;;;;;;;9.10;8.60;;;6.10;12.90;;;;;;5049693;28;20223;-45
2023/04/04 06:35:00;;;;;;;9.30;8.80;;;6.10;12.70;;;;;;5050154;28;20434;-45
2023/04/04 06:37:25;;;;;;;9.50;9.00;;;6.20;12.70;;;;;;5017241;28;20192;-45
2023/04/04 06:39:51;;;;;;;9.57;9.00;;;6.20;12.60;;;;;;5050219;28;20183;-47
2023/04/04 06:42:16;;;;;;;11.17;10.37;;;6.20;12.60;;;;;;5049614;28;20239;-48
2023/04/04 06:44:42;;;;;;;9.47;8.97;;;6.20;12.20;;;;;;5034929;28;20207;-47
2023/04/04 06:47:08;;;;;;;9.90;9.30;;;6.20;12.10;;;;;;5050013;28;20180;-47
2023/04/04 06:49:33;;;;;;;9.97;9.47;;;6.20;12.30;;;;;;5049895;28;20278;-48
2023/04/04 06:51:59;;;;;;;10.63;9.80;;;5.80;13.50;;;;;;5049363;28;20219;-47
2023/04/04 06:54:25;;;;;;;9.60;9.10;;;5.70;12.90;;;;;;5049979;28;21050;-48
2023/04/04 06:56:51;;;;;;;10.60;10.00;;;5.80;13.40;;;;;;5049827;28;20533;-51
2023/04/04 06:59:17;;;;;;;10.60;10.10;;;5.80;13.30;;;;;;5033221;28;20177;-44
2023/04/04 07:01:44;;;;;;;10.10;9.40;;;5.60;13.90;;;;;;5032427;28;20519;-47
2023/04/04 07:04:09;;;;;;;10.37;9.77;;;5.80;13.00;;;;;;5049798;28;20422;-47
2023/04/04 07:06:35;;;;;;;10.30;9.90;;;5.90;13.10;;;;;;5049840;28;20510;-45
2023/04/04 07:09:03;;;;;;;11.30;10.50;;;6.00;12.70;;;;;;5048718;28;20181;-44
2023/04/04 07:11:29;;;;;;;10.20;9.70;;;5.80;13.50;;;;;;5031786;28;20246;-45
2023/04/04 07:13:55;;;;;;;10.33;9.73;;;5.90;12.70;;;;;;5048714;28;20907;-46
2023/04/04 07:16:21;;;;;;;10.97;10.43;;;5.90;12.40;;;;;;5049287;28;20597;-47
2023/04/04 07:18:46;;;;;;;10.10;9.60;;;5.80;13.00;;;;;;5031377;28;20173;-48
2023/04/04 07:21:12;;;;;;;10.40;9.80;;;6.00;12.60;;;;;;5048735;28;20267;-46
2023/04/04 07:23:38;;;;;;;12.80;11.80;;;6.00;13.10;;;;;;5049454;28;20183;-46
2023/04/04 07:26:03;;;;;;;11.07;10.40;;;6.00;15.80;;;;;;5031589;28;20188;-46
2023/04/04 07:28:30;;;;;;;11.27;10.50;;;5.90;14.90;;;;;;5032090;28;20188;-48
2023/04/04 07:30:59;;;;;;;10.53;9.93;;;5.90;13.70;;;;;;5031524;28;20188;-54
2023/04/04 07:33:26;;;;;;;10.87;10.13;;;5.80;13.00;;;;;;5029570;28;20459;-49
2023/04/04 07:35:52;;;;;;;10.30;9.80;;;5.80;14.30;;;;;;5031363;28;20505;-52
2023/04/04 07:38:17;;;;;;;11.00;10.37;;;6.00;13.40;;;;;;5030939;28;20427;-50
2023/04/04 07:40:43;;;;;;;10.40;9.73;;;6.20;14.00;;;;;;5032489;28;20407;-49
2023/04/04 07:43:09;;;;;;;10.63;10.13;;;6.10;13.20;;;;;;5029918;28;20176;-50
2023/04/04 07:45:35;;;;;;;11.50;11.00;;;6.00;12.10;;;;;;5031599;28;20435;-60
2023/04/04 07:48:01;;;;;;;10.93;10.40;;;5.90;13.10;;;;;;5028895;28;20439;-60
2023/04/04 07:50:27;;;;;;;10.60;9.93;;;6.00;11.80;;;;;;5031519;28;20233;-60
2023/04/04 07:52:57;;;;;;;10.80;10.00;;;6.20;12.10;;;;;;5030354;28;20473;-60
2023/04/04 07:55:26;;;;;;;10.30;9.70;;;6.30;11.40;;;;;;5028515;28;20200;-61
2023/04/04 07:57:53;;;;;;;10.27;9.77;;;6.50;10.90;;;;;;5031267;28;20423;-61
2023/04/04 08:00:20;;;;;;;10.10;9.60;;;6.50;11.40;;;;;;5031114;28;20519;-61
2023/04/04 08:03:01;;;;;;;9.90;9.40;;;6.60;11.10;;;;;;5030761;28;20879;-61
2023/04/04 08:05:26;;;;;;;9.90;9.30;;;6.70;10.40;;;;;;5031902;28;20449;-61
2023/04/04 08:07:52;;;;;;;9.40;8.83;;;6.50;11.00;;;;;;5031079;28;20427;-61
2023/04/04 08:10:19;;;;;;;9.30;8.90;;;6.50;11.10;;;;;;5031171;28;20251;-61
2023/04/04 08:12:45;;;;;;;10.40;9.70;;;6.70;10.70;;;;;;5029543;28;20238;-61
2023/04/04 08:15:11;;;;;;;10.00;9.30;;;6.80;10.50;;;;;;5031874;28;20495;-60
2023/04/04 08:17:37;;;;;;;10.70;10.00;;;6.80;10.60;;;;;;5031149;28;20173;-60
2023/04/04 08:20:03;;;;;;;9.80;9.30;;;6.90;10.40;;;;;;5030774;28;20291;-61
2023/04/04 08:22:29;;;;;;;10.30;9.70;;;6.70;10.90;;;;;;5031015;28;20455;-61
2023/04/04 08:24:54;;;;;;;10.47;9.87;;;6.60;10.90;;;;;;5031584;28;20501;-60
2023/04/04 08:27:20;;;;;;;9.83;9.33;;;6.70;10.70;;;;;;5030085;28;20923;-60
2023/04/04 08:29:47;;;;;;;10.40;9.90;;;6.80;10.60;;;;;;5031655;28;20180;-50
2023/04/04 08:32:13;;;;;;;10.67;10.07;;;6.80;10.40;;;;;;5030939;28;20469;-47
2023/04/04 08:34:40;;;;;;;10.90;10.40;;;6.90;10.90;;;;;;5030311;28;20453;-48
2023/04/04 08:37:06;;;;;;;10.63;10.10;;;6.90;10.20;;;;;;5030939;28;20466;-50
2023/04/04 08:39:32;;;;;;;10.17;9.60;;;6.80;11.10;;;;;;5030969;28;20824;-48
2023/04/04 08:42:06;;;;;;;9.87;9.43;;;6.90;10.80;;;;;;5029689;28;20454;-49
2023/04/04 08:44:36;;;;;;;10.03;9.50;;;7.00;11.10;;;;;;5030469;28;20647;-49
2023/04/04 08:47:04;;;;;;;10.50;9.80;;;7.10;10.30;;;;;;5031074;28;20511;-51
2023/04/04 08:49:34;;;;;;;10.97;10.13;;;7.10;11.00;;;;;;5030992;28;20439;-48
2023/04/04 08:55:22;;;;;;;9.90;9.20;;;7.00;10.70;;;;;;5032540;28;20573;-50
2023/04/04 08:57:48;;;;;;;11.87;10.13;;;7.10;11.40;;;;;;5031154;28;20864;-50
2023/04/04 09:00:15;;;;;;;11.93;10.03;;;7.30;10.20;;;;;;5031092;28;20195;-50
2023/04/04 09:03:03;;;;;;;10.37;9.67;;;7.20;10.10;;;;;;5029693;28;20407;-48
2023/04/04 09:05:29;;;;;;;9.80;9.20;;;7.30;10.20;;;;;;5032497;28;20403;-55
2023/04/04 09:07:55;;;;;;;9.87;9.30;;;7.30;10.00;;;;;;5030100;28;20771;-48
2023/04/04 09:10:22;;;;;;;9.50;9.10;;;7.40;9.40;;;;;;5030187;28;20419;-50
2023/04/04 09:12:49;;;;;;;8.83;8.43;;;7.50;8.80;;;;;;5029450;28;20722;-45
2023/04/04 09:15:15;;;;;;;10.17;9.57;;;7.70;8.60;;;;;;5031159;28;20478;-50
2023/04/04 09:17:41;;;;;;;10.50;10.00;;;7.70;9.10;;;;;;5031001;28;20942;-48
2023/04/04 09:20:35;;;;;;;10.87;10.27;;;7.90;8.80;;;;;;5030830;28;20492;-50
2023/04/04 09:23:05;;;;;;;10.83;10.27;;;8.00;9.00;;;;;;5030132;28;20218;-50
2023/04/04 09:25:31;;;;;;;10.13;9.63;;;7.90;9.00;;;;;;5030915;28;20419;-48
2023/04/04 09:27:57;;;;;;;10.17;9.77;;;8.20;7.90;;;;;;5030826;28;20503;-50
2023/04/04 09:30:23;;;;;;;10.67;10.20;;;8.30;8.00;;;;;;5014612;28;20427;-48
2023/04/04 09:32:49;;;;;;;10.13;9.73;;;8.30;7.70;;;;;;5030202;28;20187;-49
2023/04/04 09:35:15;;;;;;;10.03;9.53;;;8.50;6.90;;;;;;5030568;28;20415;-45
2023/04/04 09:37:41;;;;;;;9.93;9.33;;;8.60;6.80;;;;;;5030824;28;20227;-52
2023/04/04 09:40:10;;;;;;;10.70;10.00;;;8.60;6.20;;;;;;5030759;28;20180;-48
2023/04/04 09:42:36;;;;;;;9.70;9.20;;;8.60;6.10;;;;;;5030149;28;20412;-46
2023/04/04 09:45:03;;;;;;;10.33;9.67;;;8.40;6.40;;;;;;5030635;28;20938;-47
2023/04/04 09:47:31;;;;;;;9.07;8.67;;;8.30;6.50;;;;;;5030457;28;20173;-51
2023/04/04 09:50:00;;;;;;;8.87;8.37;;;8.20;5.90;;;;;;5034200;28;20419;-48
2023/04/04 09:52:26;;;;;;;8.70;8.37;;;8.60;6.10;;;;;;5033630;28;20422;-47
2023/04/04 09:54:57;;;;;;;9.47;9.07;;;8.70;6.20;;;;;;5034340;28;20403;-45
2023/04/04 09:57:24;;;;;;;9.43;9.00;;;9.00;6.40;;;;;;5034149;28;20466;-52
2023/04/04 09:59:50;;;;;;;10.30;9.67;;;9.10;6.10;;;;;;5034210;28;20541;-60
2023/04/04 10:02:16;;;;;;;10.03;9.37;;;9.10;6.50;;;;;;5033746;28;20912;-60
2023/04/04 10:04:42;;;;;;;9.67;9.17;;;9.10;6.40;;;;;;5034346;28;20176;-60
2023/04/04 10:07:13;;;;;;;9.60;9.07;;;8.80;5.70;;;;;;5034286;28;20715;-60
2023/04/04 10:09:39;;;;;;;10.27;9.47;;;9.00;5.80;;;;;;5034190;28;20773;-61
2023/04/04 10:12:09;;;;;;;9.43;8.90;;;9.20;5.00;;;;;;5033495;28;20427;-61
2023/04/04 10:14:35;;;;;;;10.67;9.80;;;9.20;5.90;;;;;;5033947;28;20187;-61
2023/04/04 10:17:14;;;;;;;9.70;9.13;;;9.10;5.50;;;;;;5033905;28;20459;-61
2023/04/04 10:19:41;;;;;;;10.17;9.67;;;9.00;6.40;;;;;;5033941;28;20407;-61
2023/04/04 10:22:08;;;;;;;10.17;9.60;;;9.20;5.70;;;;;;5033266;28;20414;-60
2023/04/04 10:24:34;;;;;;;10.60;10.00;;;9.10;6.10;;;;;;5033807;28;20444;-61
2023/04/04 10:27:00;;;;;;;10.10;9.60;;;9.40;6.70;;;;;;5033725;28;20415;-61
2023/04/04 10:29:26;;;;;;;10.80;10.20;;;9.60;5.30;;;;;;5033831;28;20774;-60
2023/04/04 10:32:04;;;;;;;10.00;9.60;;;9.70;5.60;;;;;;5033252;28;20645;-61
2023/04/04 10:34:52;;;;;;;10.97;10.27;;;9.60;5.40;;;;;;5033669;28;20512;-60
2023/04/04 10:37:26;;;;;;;10.30;9.70;;;9.70;4.90;;;;;;5033628;28;20467;-60
2023/04/04 10:40:09;;;;;;;10.97;10.33;;;9.90;4.90;;;;;;5033579;28;20439;-60
2023/04/04 10:42:40;;;;;;;9.83;9.33;;;10.00;3.80;;;;;;5033148;28;20419;-61
2023/04/04 10:45:09;;;;;;;10.50;9.90;;;9.70;4.20;;;;;;5033499;28;20890;-60
2023/04/04 10:47:35;;;;;;;10.03;9.53;;;9.60;5.00;;;;;;5033524;28;20749;-50
2023/04/04 10:50:06;;;;;;;10.10;9.60;;;9.40;5.60;;;;;;5033425;28;20418;-50
2023/04/04 10:52:33;;;;;;;9.90;9.50;;;9.30;5.70;;;;;;5032874;28;20423;-47
2023/04/04 10:55:05;;;;;;;9.90;9.43;;;9.40;5.50;;;;;;5033277;28;20447;-46
2023/04/04 10:57:40;;;;;;;9.97;9.53;;;9.50;6.10;;;;;;5033341;28;20427;-46
2023/04/04 11:00:08;;;;;;;9.23;8.73;;;9.60;5.40;;;;;;5033038;28;20445;-47
2023/04/04 11:02:45;;;;;;;9.97;9.17;;;9.50;5.70;;;;;;5032545;28;20514;-48
2023/04/04 11:05:30;;;;;;;10.23;9.63;;;9.50;5.20;;;;;;5033209;28;20414;-49
2023/04/04 11:08:06;;;;;;;10.33;9.90;;;9.50;5.70;;;;;;5033100;28;20419;-52
2023/04/04 11:10:37;;;;;;;11.00;10.30;;;9.50;5.60;;;;;;5033015;28;20410;-51
2023/04/04 11:13:15;;;;;;;10.00;9.40;;;9.50;4.90;;;;;;5031867;28;20498;-51
2023/04/04 11:15:53;;;;;;;10.20;9.60;;;9.50;5.50;;;;;;5032624;28;20535;-49
2023/04/04 11:18:20;;;;;;;11.10;10.50;;;9.70;5.50;;;;;;5032899;28;20415;-62
2023/04/04 11:20:47;;;;;;;10.07;9.63;;;9.80;5.10;;;;;;5032751;28;20447;-60
2023/04/04 11:23:21;;;;;;;10.30;9.50;;;9.90;5.10;;;;;;5031544;28;20825;-60
2023/04/04 11:25:54;;;;;;;10.50;9.90;;;10.10;4.60;;;;;;5032723;28;20542;-61
2023/04/04 11:28:32;;;;;;;10.50;10.00;;;10.20;4.30;;;;;;5032912;28;20424;-59
2023/04/04 11:31:19;;;;;;;10.70;10.13;;;10.30;3.60;;;;;;5032967;28;20427;-61
2023/04/04 11:34:11;;;;;;;9.57;9.07;;;10.30;3.10;;;;;;5032475;28;20427;-61
2023/04/04 11:36:36;;;;;;;10.53;9.97;;;10.30;2.40;;;;;;5032589;28;20475;-61
2023/04/04 11:39:23;;;;;;;10.13;9.50;;;10.20;2.60;;;;;;5032240;28;20845;-61
2023/04/04 11:42:05;;;;;;;10.17;9.47;;;9.90;3.70;;;;;;5030265;28;20580;-61
2023/04/04 11:44:33;;;;;;;11.07;10.47;;;9.80;4.60;;;;;;5029037;28;20416;-61
2023/04/04 11:47:08;;;;;;;9.93;9.53;;;9.60;5.00;;;;;;5012454;28;20455;-61
2023/04/04 11:49:36;;;;;;;11.40;10.50;;;9.50;4.70;;;;;;5012367;28;20442;-61
2023/04/04 11:52:16;;;;;;;11.30;10.70;;;9.60;5.20;;;;;;5011815;28;20473;-61
2023/04/04 11:54:44;;;;;;;11.47;10.53;;;9.60;4.90;;;;;;5012415;28;20440;-61
2023/04/04 11:57:13;;;;;;;9.90;9.50;;;9.70;4.30;;;;;;5011640;28;20510;-61
2023/04/04 11:59:41;;;;;;;10.97;10.57;;;9.60;5.60;;;;;;5020086;28;20899;-61
2023/04/04 12:02:11;;;;;;;9.60;9.20;;;9.60;4.70;;;;;;5030322;28;20482;-44
2023/04/04 12:04:43;;;;;;;11.13;10.50;;;9.60;4.50;;;;;;5031152;28;20527;-47
2023/04/04 12:07:09;;;;;;;10.30;9.90;;;9.70;4.40;;;;;;5031830;28;20419;-46
2023/04/04 12:09:35;;;;;;;10.33;9.83;;;9.70;4.40;;;;;;5031759;28;20446;-48
2023/04/04 12:12:02;;;;;;;10.13;9.40;;;9.70;4.60;;;;;;5029295;28;21083;-45
2023/04/04 12:14:28;;;;;;;10.70;10.20;;;9.70;4.90;;;;;;5031311;28;20561;-45
2023/04/04 12:16:58;;;;;;;10.80;10.20;;;9.70;5.00;;;;;;5030678;28;20538;-49
2023/04/04 12:19:25;;;;;;;9.90;9.43;;;9.80;5.40;;;;;;5015020;28;20180;-51
2023/04/04 12:21:52;;;;;;;9.93;9.53;;;9.80;5.30;;;;;;5030232;28;20462;-50
2023/04/04 12:24:19;;;;;;;9.83;9.33;;;9.90;3.90;;;;;;5030740;28;20407;-50
2023/04/04 12:26:50;;;;;;;9.90;9.40;;;9.70;4.30;;;;;;5030635;28;20417;-49
2023/04/04 12:29:17;;;;;;;10.67;10.17;;;9.80;4.80;;;;;;5030981;28;20419;-50
2023/04/04 12:31:45;;;;;;;10.00;9.57;;;9.80;5.20;;;;;;5028985;28;20514;-50
2023/04/04 12:34:46;;;;;;;11.10;10.50;;;9.70;5.30;;;;;;5030530;28;21054;-61
2023/04/04 12:37:12;;;;;;;9.97;9.57;;;9.70;5.30;;;;;;4978129;28;20465;-61
2023/04/04 12:39:49;;;;;;;11.17;10.40;;;9.80;4.60;;;;;;5030685;28;20419;-60
2023/04/04 12:42:23;;;;;;;10.13;9.73;;;9.80;5.20;;;;;;5030303;28;20420;-60
2023/04/04 12:44:53;;;;;;;10.50;9.90;;;9.90;5.00;;;;;;5030660;28;20416;-60
2023/04/04 12:47:21;;;;;;;10.53;10.10;;;10.00;4.80;;;;;;5031065;28;20450;-59
2023/04/04 12:49:50;;;;;;;10.77;10.10;;;9.90;5.20;;;;;;5031299;28;20513;-60
2023/04/04 12:52:16;;;;;;;9.20;8.80;;;9.90;4.10;;;;;;5030591;28;20415;-60
2023/04/04 12:54:42;;;;;;;10.63;10.13;;;9.90;4.80;;;;;;5031211;28;20416;-60
2023/04/04 12:57:10;;;;;;;10.73;10.23;;;9.90;4.30;;;;;;5030953;28;20471;-60
2023/04/04 12:59:36;;;;;;;10.57;9.87;;;9.90;4.90;;;;;;5031162;28;20411;-60
2023/04/04 13:02:13;;;;;;;10.17;9.60;;;9.80;4.80;;;;;;5029944;28;21171;-60